createdAt,value
2023-01-25T05:00:12.512Z,23.37
2023-01-25T05:02:40.999Z,24.06
2023-01-25T05:05:08.681Z,24.15
2023-01-25T05:07:36.174Z,24.05
2023-01-25T05:10:04.573Z,24.06
2023-01-25T05:12:32.715Z,24.18
2023-01-25T05:15:02.836Z,24.07
2023-01-25T05:17:29.733Z,23.83
2023-01-25T05:19:56.793Z,24.08
2023-01-25T05:22:24.590Z,24.16
2023-01-25T05:24:53.078Z,24.10
2023-01-25T05:27:20.782Z,23.65
2023-01-25T05:29:57.412Z,24.10
2023-01-25T05:32:57.223Z,24.10
2023-01-25T05:35:30.482Z,24.13
2023-01-25T05:37:58.495Z,23.97
2023-01-25T05:40:28.794Z,24.10
2023-01-25T05:43:00.060Z,23.89
2023-01-25T05:45:30.338Z,23.76
2023-01-25T05:47:58.038Z,24.14
2023-01-25T05:50:25.742Z,24.09
2023-01-25T05:52:59.581Z,23.88
2023-01-25T05:55:27.560Z,23.96
2023-01-25T05:57:56.984Z,24.19
2023-01-25T06:00:25.332Z,24.23
2023-01-25T06:02:52.537Z,24.02
2023-01-25T06:05:24.677Z,24.22
2023-01-25T06:07:51.919Z,24.11
2023-01-25T06:10:22.173Z,24.05
2023-01-25T06:12:50.982Z,24.26
2023-01-25T06:15:18.695Z,24.23
2023-01-25T06:17:51.322Z,24.13
2023-01-25T06:20:30.607Z,23.73
2023-01-25T06:23:15.518Z,24.06
2023-01-25T06:25:42.656Z,24.04
2023-01-25T06:28:16.175Z,23.64
2023-01-25T06:30:43.395Z,24.20
2023-01-25T06:33:16.312Z,24.24
2023-01-25T06:35:43.670Z,24.27
2023-01-25T06:38:11.520Z,24.28
2023-01-25T06:40:38.159Z,24.13
2023-01-25T06:43:10.381Z,23.97
2023-01-25T06:45:37.466Z,24.16
2023-01-25T06:48:04.521Z,24.19
2023-01-25T06:50:31.546Z,24.25
2023-01-25T06:52:58.820Z,24.00
2023-01-25T06:55:25.792Z,24.27
2023-01-25T06:58:00.995Z,24.23
2023-01-25T07:00:27.901Z,24.19
2023-01-25T07:02:57.773Z,24.08
2023-01-25T07:05:27.883Z,24.17
2023-01-25T07:07:55.074Z,24.12
2023-01-25T07:10:22.222Z,24.07
2023-01-25T07:12:48.967Z,24.21
2023-01-25T07:15:15.692Z,24.36
2023-01-25T07:17:43.350Z,24.37
2023-01-25T07:20:13.173Z,24.27
2023-01-25T07:22:39.832Z,24.38
2023-01-25T07:25:07.618Z,24.33
2023-01-25T07:27:35.308Z,24.38
2023-01-25T07:30:03.388Z,23.98
2023-01-25T07:32:30.096Z,24.38
2023-01-25T07:34:59.247Z,24.26
2023-01-25T07:37:27.766Z,24.39
2023-01-25T07:39:58.154Z,24.33
2023-01-25T07:42:25.373Z,24.36
2023-01-25T07:45:07.986Z,24.30
2023-01-25T07:47:37.134Z,24.28
2023-01-25T07:50:06.205Z,24.36
2023-01-25T07:52:33.351Z,24.44
2023-01-25T07:55:00.100Z,24.30
2023-01-25T07:57:28.411Z,24.41
2023-01-25T07:59:55.208Z,24.47
2023-01-25T08:02:22.452Z,24.36
2023-01-25T08:04:54.159Z,24.19
2023-01-25T08:07:23.515Z,24.36
2023-01-25T08:09:50.226Z,24.15
2023-01-25T08:12:17.694Z,24.25
2023-01-25T08:14:44.635Z,24.32
2023-01-25T08:17:11.371Z,24.33
2023-01-25T08:19:38.667Z,24.47
2023-01-25T08:22:08.462Z,24.40
2023-01-25T08:24:35.374Z,24.14
2023-01-25T08:27:02.129Z,24.51
2023-01-25T08:29:29.137Z,24.23
2023-01-25T08:31:58.912Z,24.42
2023-01-25T08:34:26.010Z,24.40
2023-01-25T08:36:53.474Z,24.01
2023-01-25T08:39:21.008Z,24.44
2023-01-25T08:41:47.781Z,24.34
2023-01-25T08:44:14.932Z,24.54
2023-01-25T08:46:41.877Z,24.51
2023-01-25T08:49:10.989Z,24.48
2023-01-25T08:51:37.672Z,24.56
2023-01-25T08:54:07.429Z,24.39
2023-01-25T08:56:36.245Z,24.31
2023-01-25T08:59:03.960Z,24.45
2023-01-25T09:01:30.751Z,23.91
2023-01-25T09:04:00.274Z,23.97
2023-01-25T09:06:27.606Z,23.93
2023-01-25T09:08:54.673Z,24.03
2023-01-25T09:11:22.082Z,24.10
2023-01-25T09:13:51.731Z,24.12
2023-01-25T09:16:22.921Z,23.83
2023-01-25T09:18:51.081Z,23.83
2023-01-25T09:21:22.200Z,24.30
2023-01-25T09:24:05.607Z,24.18
2023-01-25T09:26:37.086Z,24.32
2023-01-25T09:29:04.431Z,24.11
2023-01-25T09:31:31.646Z,24.25
2023-01-25T09:34:13.255Z,24.19
2023-01-25T09:36:40.723Z,24.13
2023-01-25T09:39:08.304Z,24.33
2023-01-25T09:41:35.430Z,24.34
2023-01-25T09:44:46.746Z,24.30
2023-01-25T09:47:38.208Z,24.24
2023-01-25T09:50:32.673Z,24.36
2023-01-25T09:53:16.675Z,24.36
2023-01-25T09:55:46.403Z,24.28
2023-01-25T09:58:14.995Z,24.11
2023-01-25T10:00:50.413Z,24.12
2023-01-25T10:03:23.070Z,24.39
2023-01-25T10:05:55.024Z,24.40
2023-01-25T10:08:32.225Z,24.36
2023-01-25T10:11:07.130Z,24.43
2023-01-25T10:13:35.255Z,24.31
2023-01-25T10:16:14.629Z,24.15
2023-01-25T10:19:02.567Z,24.48
2023-01-25T10:21:41.376Z,24.22
2023-01-25T10:24:22.902Z,24.45
2023-01-25T10:27:24.796Z,24.43
2023-01-25T10:29:52.647Z,23.89
2023-01-25T10:32:25.311Z,23.96
2023-01-25T10:34:57.280Z,24.28
2023-01-25T10:37:28.645Z,24.43
2023-01-25T10:40:13.790Z,24.49
2023-01-25T10:42:46.484Z,24.44
2023-01-25T10:45:15.057Z,24.37
2023-01-25T10:48:05.417Z,24.37
2023-01-25T10:50:47.141Z,24.44
2023-01-25T10:53:33.632Z,24.35
2023-01-25T10:56:10.009Z,24.43
2023-01-25T10:58:37.961Z,24.39
2023-01-25T11:01:07.208Z,24.27
2023-01-25T11:03:35.939Z,24.25
2023-01-25T11:06:02.683Z,24.33
2023-01-25T11:08:36.420Z,24.31
2023-01-25T11:11:33.894Z,24.42
2023-01-25T11:14:01.155Z,24.31
2023-01-25T11:16:33.153Z,24.40
2023-01-25T11:19:03.718Z,24.45
2023-01-25T11:21:32.528Z,24.43
2023-01-25T11:24:03.601Z,24.49
2023-01-25T11:26:30.953Z,24.42
2023-01-25T11:29:07.982Z,24.56
2023-01-25T11:31:34.779Z,24.04
2023-01-25T11:34:02.136Z,24.43
2023-01-25T11:36:47.548Z,24.57
2023-01-25T11:39:26.394Z,24.54
2023-01-25T11:42:11.827Z,24.53
2023-01-25T11:44:48.960Z,24.40
2023-01-25T11:47:45.205Z,24.16
2023-01-25T11:50:28.283Z,24.56
2023-01-25T11:52:57.942Z,24.58
2023-01-25T11:55:28.937Z,24.59
2023-01-25T11:58:11.903Z,24.58
2023-01-25T12:00:47.631Z,24.59
2023-01-25T12:03:37.259Z,24.59
2023-01-25T12:06:11.182Z,24.53
2023-01-25T12:08:55.917Z,24.53
2023-01-25T12:11:43.949Z,24.56
2023-01-25T12:14:13.361Z,24.54
2023-01-25T12:17:14.694Z,24.59
2023-01-25T12:19:56.332Z,24.59
2023-01-25T12:22:44.653Z,24.46
2023-01-25T12:25:39.779Z,24.61
2023-01-25T12:28:18.581Z,24.60
2023-01-25T12:30:54.239Z,24.34
2023-01-25T12:33:48.425Z,24.18
2023-01-25T12:36:19.239Z,24.59
2023-01-25T12:39:18.229Z,24.63
2023-01-25T12:41:50.342Z,24.59
2023-01-25T12:44:22.074Z,24.19
2023-01-25T12:46:51.392Z,24.62
2023-01-25T12:49:26.554Z,24.09
2023-01-25T12:51:53.732Z,24.58
2023-01-25T12:54:25.478Z,24.11
2023-01-25T12:57:12.952Z,24.49
2023-01-25T12:59:54.067Z,24.48
2023-01-25T13:02:58.306Z,24.66
2023-01-25T13:05:43.474Z,24.63
2023-01-25T13:08:39.396Z,24.66
2023-01-25T13:11:19.493Z,24.61
2023-01-25T13:13:46.434Z,24.48
2023-01-25T13:16:35.352Z,24.60
2023-01-25T13:19:03.813Z,24.61
2023-01-25T13:21:47.528Z,24.44
2023-01-25T13:24:20.856Z,24.43
2023-01-25T13:26:48.770Z,24.36
2023-01-25T13:29:33.613Z,24.24
2023-01-25T13:32:03.417Z,24.23
2023-01-25T13:34:42.598Z,24.37
2023-01-25T13:37:33.294Z,24.28
2023-01-25T13:40:29.061Z,24.12
2023-01-25T13:43:04.233Z,24.71
2023-01-25T13:45:34.015Z,24.78
2023-01-25T13:48:22.029Z,24.62
2023-01-25T13:51:03.665Z,24.77
2023-01-25T13:53:33.363Z,24.97
2023-01-25T13:56:00.160Z,25.07
2023-01-25T13:58:36.458Z,24.97
2023-01-25T14:01:16.930Z,25.24
2023-01-25T14:03:51.575Z,25.23
2023-01-25T14:06:24.927Z,25.04
2023-01-25T14:08:52.107Z,25.18
2023-01-25T14:11:29.793Z,25.32
2023-01-25T14:14:01.254Z,25.54
2023-01-25T14:16:30.088Z,25.19
2023-01-25T14:18:58.980Z,25.12
2023-01-25T14:21:25.775Z,25.50
2023-01-25T14:24:00.590Z,25.19
2023-01-25T14:26:36.046Z,25.46
2023-01-25T14:29:03.738Z,25.70
2023-01-25T14:31:36.181Z,25.39
2023-01-25T14:34:04.983Z,25.79
2023-01-25T14:36:35.034Z,25.79
2023-01-25T14:39:03.898Z,25.85
2023-01-25T14:41:48.778Z,25.82
2023-01-25T14:44:22.373Z,25.85
2023-01-25T14:46:49.600Z,25.95
2023-01-25T14:49:26.540Z,25.97
2023-01-25T14:52:08.314Z,25.75
2023-01-25T14:54:53.421Z,26.01
2023-01-25T14:57:39.950Z,25.88
2023-01-25T15:00:20.604Z,26.01
2023-01-25T15:02:49.671Z,25.87
2023-01-25T15:05:29.467Z,26.13
2023-01-25T15:07:59.076Z,25.76
2023-01-25T15:10:30.806Z,25.82
2023-01-25T15:13:11.637Z,25.87
2023-01-25T15:15:59.833Z,26.20
2023-01-25T15:18:51.949Z,26.26
2023-01-25T15:21:19.340Z,26.20
2023-01-25T15:23:50.444Z,25.63
2023-01-25T15:26:22.529Z,26.22
2023-01-25T15:28:50.674Z,26.26
2023-01-25T15:31:35.696Z,26.21
2023-01-25T15:34:03.144Z,26.30
2023-01-25T15:36:33.436Z,26.16
2023-01-25T15:39:00.230Z,26.16
2023-01-25T15:41:28.289Z,26.08
2023-01-25T15:43:55.168Z,25.74
2023-01-25T15:46:24.441Z,25.64
2023-01-25T15:48:51.213Z,25.36
2023-01-25T15:51:18.537Z,25.78
2023-01-25T15:53:45.459Z,25.54
2023-01-25T15:56:22.257Z,25.70
2023-01-25T15:58:59.627Z,26.03
2023-01-25T16:01:28.359Z,25.47
2023-01-25T16:03:58.813Z,25.85
2023-01-25T16:06:45.573Z,26.14
2023-01-25T16:09:22.624Z,26.18
2023-01-25T16:12:02.931Z,26.21
2023-01-25T16:14:31.274Z,25.70
2023-01-25T16:17:02.614Z,26.10
2023-01-25T16:19:34.138Z,25.78
2023-01-25T16:22:02.660Z,26.24
2023-01-25T16:24:30.531Z,26.14
2023-01-25T16:27:01.188Z,26.09
2023-01-25T16:29:28.694Z,25.63
2023-01-25T16:31:55.752Z,25.57
2023-01-25T16:34:22.997Z,26.23
2023-01-25T16:36:51.275Z,26.29
2023-01-25T16:39:20.895Z,26.08
2023-01-25T16:41:48.559Z,26.27
2023-01-25T16:44:16.914Z,26.11
2023-01-25T16:46:43.772Z,26.26
2023-01-25T16:49:19.845Z,26.12
2023-01-25T16:51:47.763Z,26.08
2023-01-25T16:54:14.773Z,26.29
2023-01-25T16:56:45.155Z,26.13
2023-01-25T16:59:12.420Z,26.22
2023-01-25T17:01:41.389Z,25.92
2023-01-25T17:04:08.782Z,26.27
2023-01-25T17:06:43.515Z,26.27
2023-01-25T17:09:21.654Z,26.17
2023-01-25T17:11:50.191Z,26.33
2023-01-25T17:14:18.735Z,25.97
2023-01-25T17:16:48.275Z,26.30
2023-01-25T17:19:16.080Z,26.01
2023-01-25T17:21:43.038Z,26.15
2023-01-25T17:24:15.224Z,25.96
2023-01-25T17:26:42.450Z,26.21
2023-01-25T17:29:10.573Z,26.11
2023-01-25T17:31:37.591Z,26.23
2023-01-25T17:34:06.385Z,25.82
2023-01-25T17:36:33.711Z,26.14
2023-01-25T17:39:07.071Z,26.19
2023-01-25T17:41:34.470Z,26.03
2023-01-25T17:44:01.401Z,26.11
2023-01-25T17:46:30.191Z,26.02
2023-01-25T17:48:57.650Z,26.01
2023-01-25T17:51:25.330Z,26.10
2023-01-25T17:53:52.916Z,25.97
2023-01-25T17:56:20.151Z,25.47
2023-01-25T17:58:47.285Z,26.07
2023-01-25T18:01:16.967Z,25.77
2023-01-25T18:03:45.957Z,25.97
2023-01-25T18:06:14.824Z,25.98
2023-01-25T18:08:42.542Z,25.90
2023-01-25T18:11:10.588Z,25.77
2023-01-25T18:13:41.744Z,25.95
2023-01-25T18:16:09.731Z,25.73
2023-01-25T18:18:37.367Z,25.90
2023-01-25T18:21:11.035Z,25.76
2023-01-25T18:23:39.027Z,25.83
2023-01-25T18:26:06.637Z,25.83
2023-01-25T18:28:34.665Z,25.76
2023-01-25T18:31:05.456Z,25.75
2023-01-25T18:33:33.485Z,25.71
2023-01-25T18:36:02.768Z,25.73
2023-01-25T18:38:31.256Z,25.43
2023-01-25T18:40:58.332Z,25.79
2023-01-25T18:43:25.733Z,25.78
2023-01-25T18:45:59.461Z,25.80
2023-01-25T18:48:31.038Z,25.75
2023-01-25T18:51:09.232Z,25.73
2023-01-25T18:53:36.794Z,25.68
2023-01-25T18:56:08.043Z,25.71
2023-01-25T18:58:36.058Z,25.65
2023-01-25T19:01:14.878Z,25.67
2023-01-25T19:03:45.259Z,25.62
2023-01-25T19:06:12.511Z,25.67
2023-01-25T19:08:44.294Z,25.26
2023-01-25T19:11:13.289Z,25.65
2023-01-25T19:13:41.965Z,25.41
2023-01-25T19:16:14.534Z,25.64
2023-01-25T19:18:47.178Z,25.64
2023-01-25T19:21:25.952Z,25.62
2023-01-25T19:23:56.820Z,25.47
2023-01-25T19:26:25.012Z,25.55
2023-01-25T19:28:52.138Z,25.57
2023-01-25T19:31:32.169Z,25.61
2023-01-25T19:34:04.237Z,25.51
2023-01-25T19:36:32.200Z,25.33
2023-01-25T19:38:59.317Z,25.47
2023-01-25T19:41:27.361Z,25.52
2023-01-25T19:44:03.494Z,25.06
2023-01-25T19:46:35.260Z,25.55
2023-01-25T19:49:05.412Z,25.51
2023-01-25T19:51:34.089Z,25.54
2023-01-25T19:54:10.147Z,25.55
2023-01-25T19:56:41.876Z,25.44
2023-01-25T19:59:12.907Z,25.20
2023-01-25T20:01:47.725Z,25.44
2023-01-25T20:04:21.361Z,25.38
2023-01-25T20:06:50.652Z,25.52
2023-01-25T20:09:22.217Z,25.50
2023-01-25T20:11:50.161Z,25.29
2023-01-25T20:14:17.743Z,25.33
2023-01-25T20:16:47.259Z,25.47
2023-01-25T20:19:14.742Z,25.29
2023-01-25T20:21:43.396Z,25.32
2023-01-25T20:24:10.862Z,25.20
2023-01-25T20:26:40.529Z,25.35
2023-01-25T20:29:07.772Z,25.03
2023-01-25T20:31:40.360Z,25.45
2023-01-25T20:34:12.397Z,25.09
2023-01-25T20:36:39.969Z,25.24
2023-01-25T20:39:10.647Z,25.35
2023-01-25T20:41:37.680Z,24.74
2023-01-25T20:44:08.620Z,25.25
2023-01-25T20:46:40.018Z,25.30
2023-01-25T20:49:10.231Z,25.24
2023-01-25T20:51:37.819Z,25.04
2023-01-25T20:54:06.403Z,24.86
2023-01-25T20:56:33.280Z,25.30
2023-01-25T20:59:00.543Z,25.43
2023-01-25T21:01:29.699Z,25.42
2023-01-25T21:03:57.165Z,25.32
2023-01-25T21:06:25.196Z,25.07
2023-01-25T21:08:51.998Z,25.18
2023-01-25T21:11:19.294Z,25.19
2023-01-25T21:13:47.575Z,24.85
2023-01-25T21:16:24.390Z,25.39
2023-01-25T21:18:53.117Z,25.27
2023-01-25T21:21:30.648Z,25.20
2023-01-25T21:24:00.427Z,25.28
2023-01-25T21:26:33.100Z,25.28
2023-01-25T21:29:02.624Z,25.04
2023-01-25T21:31:38.130Z,25.07
2023-01-25T21:34:09.288Z,25.23
2023-01-25T21:36:36.929Z,25.33
2023-01-25T21:39:04.181Z,25.04
2023-01-25T21:41:33.406Z,24.72
2023-01-25T21:44:19.381Z,25.03
2023-01-25T21:47:12.426Z,24.84
2023-01-25T21:49:53.198Z,24.50
2023-01-25T21:52:23.657Z,25.08
2023-01-25T21:54:50.684Z,25.05
2023-01-25T21:57:17.495Z,24.81
2023-01-25T21:59:44.272Z,24.96
2023-01-25T22:02:15.243Z,25.25
2023-01-25T22:04:44.108Z,25.24
2023-01-25T22:07:11.947Z,25.23
2023-01-25T22:09:40.083Z,25.17
2023-01-25T22:16:03.556Z,25.20
2023-01-25T22:18:36.254Z,25.17
2023-01-25T22:21:06.747Z,25.16
2023-01-25T22:23:38.311Z,25.17
2023-01-25T22:26:10.450Z,25.13
2023-01-25T22:28:48.605Z,25.18
